METAR Data
IDs: Format: Raw Decoded Include TAF

Data at: 1429 UTC 21 May 2019

KFSW 211415Z AUTO 08008KT 10SM OVC044 09/07 A2997 RMK AO2
KFSW 211355Z AUTO 07010G17KT 10SM OVC046 09/07 A2995 RMK AO2
KFSW 211335Z AUTO 08011G17KT 10SM OVC048 08/07 A2993 RMK AO2
KFSW 211315Z AUTO 08012G18KT 10SM OVC048 08/07 A2994 RMK AO2
KFSW 211255Z AUTO 08011G15KT 10SM OVC050 08/07 A2994 RMK AO2
KFSW 211235Z AUTO 08011KT 10SM OVC050 08/07 A2995 RMK AO2
KFSW 211215Z AUTO 08013G17KT 10SM OVC050 08/07 A2994 RMK AO2
KFSW 211155Z AUTO 09010G14KT 10SM OVC050 08/07 A2997 RMK AO2
KFSW 211135Z AUTO 09013KT 10SM OVC050 08/07 A2997 RMK AO2
KFSW 211115Z AUTO 10015G19KT 10SM SCT015 SCT019 OVC060 08/07 A2996 RMK AO2
KFSW 211055Z AUTO 09014G20KT 10SM BKN015 BKN022 OVC060 08/07 A2998 RMK AO2
KFSW 211035Z AUTO 09013G20KT 10SM BKN016 OVC060 08/07 A2998 RMK AO2
KFSW 211015Z AUTO 09014G20KT 10SM SCT014 OVC070 08/07 A2996 RMK AO2
KFSW 210955Z AUTO 09015G22KT 10SM -RA SCT014 OVC070 08/07 A2997 RMK AO2
KFSW 210935Z AUTO 09014G18KT 5SM -RA SCT012 BKN019 OVC090 08/07 A2999 RMK AO2
KFSW 210915Z AUTO 10017G23KT 5SM -RA SCT011 BKN020 OVC060 08/08 A3001 RMK AO2
KFSW 210855Z AUTO 11015G21KT 5SM -RA BKN010 OVC015 08/08 A3001 RMK AO2
KFSW 210835Z AUTO 09016G21KT 7SM -RA BKN010 OVC016 08/08 A3000 RMK AO2
KFSW 210815Z AUTO 10015G21KT 3SM RA BKN014 OVC020 08/08 A3000 RMK AO2
KFSW 210755Z AUTO 10015G22KT 2SM RA BKN014 BKN019 OVC026 08/08 A3001 RMK AO2 VIS 1 1/4V3
KFSW 210735Z AUTO 10012G20KT 2 1/2SM +RA SCT016 BKN023 OVC032 08/08 A3001 RMK AO2
KFSW 210715Z AUTO 08014G22KT 4SM -RA SCT016 BKN037 OVC050 09/08 A2999 RMK AO2
KFSW 210655Z AUTO 08015G20KT 7SM RA SCT038 BKN050 OVC110 09/08 A2998 RMK AO2
KFSW 210635Z AUTO 08012G16KT 5SM RA SCT020 SCT035 OVC047 09/08 A2999 RMK AO2
KFSW 210615Z AUTO 08014G24KT 7SM -RA SCT021 BKN034 OVC046 09/09 A3000 RMK AO2
KFSW 210555Z AUTO 09014G21KT 4SM RA SCT013 BKN029 OVC034 09/09 A3000 RMK AO2
KFSW 210535Z AUTO 10014G23KT 3SM RA SCT026 BKN034 OVC050 09/09 A3000 RMK AO2
KFSW 210515Z AUTO 10013G20KT 5SM RA SCT025 BKN035 OVC044 09/09 A3003 RMK AO2
KFSW 210455Z AUTO 09011G15KT 4SM RA SCT021 BKN028 OVC034 09/09 A3006 RMK AO2
KFSW 210435Z AUTO 09006KT 2SM +RA SCT015 BKN021 OVC027 09/09 A3009 RMK AO2
KFSW 210415Z AUTO 09004KT 2 1/2SM +RA SCT019 BKN028 OVC050 09/09 A3011 RMK AO2
KFSW 210355Z AUTO 08006KT 5SM RA SCT035 BKN050 OVC085 10/09 A3011 RMK AO2
KFSW 210335Z AUTO 07005KT 10SM -RA SCT042 BKN070 OVC090 10/08 A3011 RMK AO2
KFSW 210315Z AUTO 08005KT 7SM -RA SCT037 BKN050 OVC090 10/08 A3011 RMK AO2
KFSW 210255Z AUTO 00000KT 7SM -RA SCT043 BKN055 OVC090 11/08 A3014 RMK AO2
KFSW 210235Z AUTO 00000KT 10SM -RA SCT055 BKN080 OVC090 11/08 A3013 RMK AO2
KFSW 210215Z AUTO 06005KT 10SM SCT080 OVC090 11/08 A3010 RMK AO2
KFSW 210155Z AUTO 06004KT 10SM SCT070 BKN100 11/07 A3010 RMK AO2
KFSW 210135Z AUTO 05006KT 10SM SCT034 SCT080 BKN100 11/08 A3011 RMK AO2
KFSW 210115Z AUTO 09003KT 10SM SCT032 SCT080 BKN100 11/08 A3013 RMK AO2
KFSW 210055Z AUTO 11003KT 10SM SCT100 11/08 A3013 RMK AO2
KFSW 210035Z AUTO 00000KT 10SM CLR 11/08 A3012 RMK AO2
KFSW 210015Z AUTO 07003KT 10SM CLR 11/07 A3011 RMK AO2
KFSW 202355Z AUTO 04007KT 10SM SCT031 11/07 A3008 RMK AO2
KFSW 202335Z AUTO 04008KT 10SM BKN033 11/07 A3008 RMK AO2
KFSW 202315Z AUTO 08005KT 10SM OVC033 11/07 A3011 RMK AO2
KFSW 202255Z AUTO 07006KT 10SM OVC031 12/07 A3011 RMK AO2
KFSW 202235Z AUTO 07005KT 10SM BKN031 12/07 A3012 RMK AO2
KFSW 202215Z AUTO 08003KT 10SM SCT029 12/07 A3014 RMK AO2
KFSW 202155Z AUTO 07007KT 10SM BKN029 12/07 A3014 RMK AO2
KFSW 202135Z AUTO 03003KT 10SM SCT029 12/07 A3013 RMK AO2
KFSW 202115Z AUTO 01007KT 10SM SCT029 12/07 A3013 RMK AO2
KFSW 202055Z AUTO 05007KT 360V070 10SM BKN029 12/07 A3013 RMK AO2
KFSW 202035Z AUTO 04007KT 010V070 10SM BKN029 12/07 A3013 RMK AO2
KFSW 202015Z AUTO 36007KT 10SM BKN029 12/07 A3015 RMK AO2
KFSW 201955Z AUTO 05003KT 10SM OVC027 12/06 A3015 RMK AO2
KFSW 201935Z AUTO 04004KT 10SM OVC027 11/06 A3015 RMK AO2
KFSW 201915Z AUTO 34005KT 10SM OVC027 11/06 A3017 RMK AO2
KFSW 201855Z AUTO 29004KT 10SM OVC027 11/06 A3017 RMK AO2
KFSW 201835Z AUTO 02009KT 10SM OVC027 11/07 A3014 RMK AO2
KFSW 201815Z AUTO 01007G15KT 10SM BKN027 11/07 A3015 RMK AO2
KFSW 201755Z AUTO 01009KT 10SM OVC025 11/07 A3014 RMK AO2
KFSW 201735Z AUTO 35008KT 10SM OVC025 11/06 A3013 RMK AO2
KFSW 201715Z AUTO 34006KT 10SM OVC025 10/06 A3016 RMK AO2
KFSW 201655Z AUTO 36006KT 10SM OVC023 09/06 A3016 RMK AO2
KFSW 201635Z AUTO 33008KT 10SM OVC023 09/06 A3016 RMK AO2
KFSW 201615Z AUTO 34008KT 10SM OVC023 09/05 A3016 RMK AO2
KFSW 201555Z AUTO 36005KT 10SM OVC023 08/05 A3016 RMK AO2
KFSW 201535Z AUTO 35009KT 10SM OVC023 08/05 A3017 RMK AO2
KFSW 201515Z AUTO 34007KT 10SM OVC021 08/04 A3016 RMK AO2
KFSW 201455Z AUTO 33009KT 10SM OVC019 08/05 A3016 RMK AO2
KFSW 201435Z AUTO 31007KT 10SM OVC019 07/04 A3016 RMK AO2
KFSW 201415Z AUTO 34010KT 10SM OVC019 07/04 A3014 RMK AO2
KFSW 201355Z AUTO 33009KT 10SM OVC017 07/04 A3012 RMK AO2
KFSW 201335Z AUTO 32007KT 10SM OVC017 07/04 A3012 RMK AO2
KFSW 201315Z AUTO 33009KT 10SM OVC017 07/04 A3011 RMK AO2
KFSW 201255Z AUTO 32009KT 10SM OVC017 07/04 A3010 RMK AO2
KFSW 201235Z AUTO 33010KT 10SM OVC019 06/04 A3009 RMK AO2
KFSW 201215Z AUTO 35011G18KT 10SM OVC019 06/04 A3009 RMK AO2
KFSW 201155Z AUTO 34012KT 10SM OVC019 07/04 A3008 RMK AO2
KFSW 201135Z AUTO 34012G15KT 10SM OVC019 08/05 A3006 RMK AO2
KFSW 201115Z AUTO 32007KT 10SM OVC021 08/06 A3005 RMK AO2
KFSW 201055Z AUTO 31010G19KT 10SM OVC021 08/06 A3003 RMK AO2
KFSW 201035Z AUTO 31012G16KT 10SM OVC019 08/06 A3003 RMK AO2
KFSW 201015Z AUTO 32013G18KT 10SM BKN019 OVC026 09/07 A3002 RMK AO2
KFSW 200955Z AUTO 31012G17KT 10SM SCT019 BKN024 09/07 A3002 RMK AO2
KFSW 200935Z AUTO 30008KT 10SM SCT020 SCT026 09/07 A3002 RMK AO2
KFSW 200915Z AUTO 30008KT 10SM SCT024 09/07 A3001 RMK AO2
KFSW 200855Z AUTO 30008G14KT 10SM CLR 09/07 A3001 RMK AO2
KFSW 200835Z AUTO 30008KT 10SM CLR 09/07 A3000 RMK AO2
KFSW 200815Z AUTO 31011G17KT 10SM SCT017 10/08 A3001 RMK AO2
KFSW 200755Z AUTO 31009KT 10SM SCT019 10/09 A3000 RMK AO2
KFSW 200735Z AUTO 30009KT 10SM SCT023 BKN034 11/08 A3000 RMK AO2
KFSW 200715Z AUTO 30014G18KT 10SM BKN020 OVC027 11/09 A2999 RMK AO2
KFSW 200655Z AUTO 29008KT 10SM SCT021 BKN037 11/09 A2998 RMK AO2
KFSW 200635Z AUTO 29005KT 10SM SCT037 11/09 A2997 RMK AO2
KFSW 200615Z AUTO 29006KT 10SM CLR 11/09 A2997 RMK AO2
KFSW 200555Z AUTO 29005KT 10SM CLR 11/09 A2997 RMK AO2
KFSW 200535Z AUTO 25003KT 10SM CLR 11/09 A2996 RMK AO2
KFSW 200515Z AUTO 27005KT 10SM CLR 11/09 A2996 RMK AO2
KFSW 200455Z AUTO 29007KT 10SM CLR 11/09 A2996 RMK AO2
KFSW 200435Z AUTO 28008KT 10SM CLR 12/10 A2995 RMK AO2
KFSW 200415Z AUTO 27006KT 10SM CLR 12/10 A2994 RMK AO2
KFSW 200355Z AUTO 28006KT 10SM CLR 12/10 A2994 RMK AO2
KFSW 200335Z AUTO 27006KT 10SM CLR 12/10 A2994 RMK AO2
KFSW 200315Z AUTO 28008KT 10SM SCT050 13/10 A2994 RMK AO2
KFSW 200255Z AUTO 28010G14KT 10SM OVC050 13/10 A2992 RMK AO2
KFSW 200235Z AUTO 28010G16KT 10SM SCT028 BKN042 OVC050 14/11 A2991 RMK AO2